createdAt,value
2019-02-04T00:00:32.770Z,5.40
2019-02-04T00:01:37.541Z,5.10
2019-02-04T00:02:41.245Z,5.07
2019-02-04T00:03:44.879Z,3.97
2019-02-04T00:04:48.924Z,4.30
2019-02-04T00:05:52.931Z,4.17
2019-02-04T00:06:56.710Z,3.63
2019-02-04T00:08:00.513Z,4.00
2019-02-04T00:09:06.508Z,5.03
2019-02-04T00:10:12.295Z,3.20
2019-02-04T00:11:16.056Z,4.13
2019-02-04T00:12:19.787Z,3.97
2019-02-04T00:13:23.516Z,4.97
2019-02-04T00:14:27.146Z,4.30
2019-02-04T00:15:30.801Z,4.17
2019-02-04T00:16:40.865Z,3.53
2019-02-04T00:17:39.950Z,3.80
2019-02-04T00:18:43.683Z,4.10
2019-02-04T00:19:47.315Z,4.43
2019-02-04T00:20:51.015Z,3.60
2019-02-04T00:21:55.174Z,3.70
2019-02-04T00:22:58.967Z,3.43
2019-02-04T00:24:02.619Z,3.10
2019-02-04T00:25:07.378Z,3.60
2019-02-04T00:26:11.189Z,3.27
2019-02-04T00:27:14.869Z,3.87
2019-02-04T00:28:18.600Z,3.43
2019-02-04T00:29:22.332Z,4.23
2019-02-04T00:30:27.278Z,4.20
2019-02-04T00:31:31.077Z,3.70
2019-02-04T00:32:35.103Z,3.80
2019-02-04T00:33:38.869Z,3.30
2019-02-04T00:34:42.666Z,4.80
2019-02-04T00:35:46.376Z,5.27
2019-02-04T00:36:50.566Z,4.73
2019-02-04T00:37:54.670Z,4.57
2019-02-04T00:38:58.347Z,4.37
2019-02-04T00:40:02.002Z,4.60
2019-02-04T00:41:05.848Z,4.30
2019-02-04T00:42:09.496Z,4.73
2019-02-04T00:43:13.128Z,5.40
2019-02-04T00:44:16.797Z,5.67
2019-02-04T00:45:20.518Z,4.87
2019-02-04T00:46:24.214Z,6.07
2019-02-04T00:47:27.905Z,5.13
2019-02-04T00:48:31.540Z,5.10
2019-02-04T00:49:35.261Z,5.37
2019-02-04T00:50:39.260Z,5.40
2019-02-04T00:51:43.193Z,4.60
2019-02-04T00:52:46.989Z,4.87
2019-02-04T00:53:50.691Z,4.93
2019-02-04T00:54:54.475Z,4.37
2019-02-04T00:55:58.582Z,3.70
2019-02-04T00:57:02.271Z,3.67
2019-02-04T00:58:05.932Z,4.17
2019-02-04T00:59:09.582Z,3.80
2019-02-04T01:00:28.617Z,5.30
2019-02-04T01:01:32.913Z,4.27
2019-02-04T01:02:36.568Z,4.57
2019-02-04T01:03:40.506Z,4.30
2019-02-04T01:04:44.137Z,4.03
2019-02-04T01:05:48.076Z,4.27
2019-02-04T01:06:51.795Z,3.70
2019-02-04T01:07:55.925Z,3.73
2019-02-04T01:08:59.701Z,3.53
2019-02-04T01:10:05.107Z,4.07
2019-02-04T01:11:08.964Z,3.47
2019-02-04T01:12:12.604Z,5.43
2019-02-04T01:13:16.529Z,4.13
2019-02-04T01:14:20.171Z,3.90
2019-02-04T01:15:24.008Z,3.87
2019-02-04T01:16:27.691Z,4.20
2019-02-04T01:17:31.328Z,3.73
2019-02-04T01:18:35.024Z,3.57
2019-02-04T01:19:39.037Z,4.13
2019-02-04T01:20:42.673Z,3.90
2019-02-04T01:21:46.407Z,3.53
2019-02-04T01:22:50.120Z,3.97
2019-02-04T01:23:53.751Z,4.63
2019-02-04T01:24:57.574Z,4.37
2019-02-04T01:26:01.615Z,4.27
2019-02-04T01:27:05.452Z,4.77
2019-02-04T01:28:09.082Z,5.73
2019-02-04T01:29:12.710Z,5.23
2019-02-04T01:30:19.191Z,4.40
2019-02-04T01:31:22.824Z,4.10
2019-02-04T01:32:26.484Z,4.33
2019-02-04T01:33:30.121Z,3.60
2019-02-04T01:34:33.777Z,4.30
2019-02-04T01:35:37.391Z,4.50
2019-02-04T01:36:41.009Z,4.00
2019-02-04T01:37:44.678Z,3.80
2019-02-04T01:38:48.767Z,3.57
2019-02-04T01:39:52.392Z,3.27
2019-02-04T01:40:56.649Z,3.47
2019-02-04T01:42:00.287Z,3.40
2019-02-04T01:43:04.014Z,3.40
2019-02-04T01:44:07.645Z,3.37
2019-02-04T01:45:11.284Z,3.93
2019-02-04T01:46:14.915Z,3.80
2019-02-04T01:47:18.559Z,3.53
2019-02-04T01:48:22.275Z,3.97
2019-02-04T01:49:25.913Z,4.47
2019-02-04T01:50:29.539Z,3.77
2019-02-04T01:51:33.232Z,4.43
2019-02-04T01:52:36.869Z,4.77
2019-02-04T01:53:40.869Z,3.67
2019-02-04T01:54:44.502Z,3.83
2019-02-04T01:55:48.511Z,4.40
2019-02-04T01:56:52.139Z,4.00
2019-02-04T01:57:56.173Z,4.10
2019-02-04T01:58:59.834Z,3.23
2019-02-04T02:00:05.039Z,3.43
2019-02-04T02:01:08.663Z,3.70
2019-02-04T02:02:12.399Z,4.13
2019-02-04T02:03:16.036Z,3.50
2019-02-04T02:04:19.701Z,3.57
2019-02-04T02:05:23.424Z,4.20
2019-02-04T02:06:27.045Z,4.07
2019-02-04T02:07:30.671Z,3.00
2019-02-04T02:08:34.301Z,2.80
2019-02-04T02:09:37.964Z,3.27
2019-02-04T02:10:41.984Z,4.33
2019-02-04T02:11:45.611Z,3.37
2019-02-04T02:12:49.543Z,3.43
2019-02-04T02:13:53.254Z,2.60
2019-02-04T02:14:56.908Z,2.73
2019-02-04T02:16:00.538Z,3.10
2019-02-04T02:17:04.674Z,3.47
2019-02-04T02:18:08.307Z,3.33
2019-02-04T02:19:12.036Z,3.33
2019-02-04T02:20:21.550Z,3.53
2019-02-04T02:21:25.107Z,3.57
2019-02-04T02:22:28.754Z,3.57
2019-02-04T02:23:32.383Z,3.67
2019-02-04T02:24:36.022Z,3.77
2019-02-04T02:25:39.688Z,3.77
2019-02-04T02:26:43.602Z,4.03
2019-02-04T02:27:48.510Z,4.10
2019-02-04T02:28:52.148Z,4.00
2019-02-04T02:29:56.159Z,4.90
2019-02-04T02:30:59.822Z,4.03
2019-02-04T02:32:03.454Z,3.17
2019-02-04T02:33:07.196Z,3.87
2019-02-04T02:34:10.875Z,4.17
2019-02-04T02:35:14.512Z,3.70
2019-02-04T02:36:18.174Z,3.97
2019-02-04T02:37:21.802Z,4.27
2019-02-04T02:38:25.432Z,4.57
2019-02-04T02:39:29.058Z,4.10
2019-02-04T02:40:34.061Z,4.60
2019-02-04T02:41:38.004Z,4.07
2019-02-04T02:42:42.012Z,4.33
2019-02-04T02:43:45.646Z,5.03
2019-02-04T02:44:49.286Z,4.87
2019-02-04T02:45:52.920Z,5.13
2019-02-04T02:46:56.622Z,6.43
2019-02-04T02:48:00.308Z,5.20
2019-02-04T02:49:03.891Z,4.80
2019-02-04T02:50:10.190Z,4.70
2019-02-04T02:51:13.749Z,5.03
2019-02-04T02:52:17.416Z,6.17
2019-02-04T02:53:21.053Z,5.00
2019-02-04T02:54:24.832Z,4.73
2019-02-04T02:55:28.466Z,4.40
2019-02-04T02:56:32.475Z,4.93
2019-02-04T02:57:36.339Z,5.23
2019-02-04T02:58:39.963Z,5.33
2019-02-04T02:59:43.589Z,5.67
2019-02-04T03:00:47.181Z,4.63
2019-02-04T03:01:51.617Z,5.23
2019-02-04T03:02:55.481Z,4.67
2019-02-04T03:03:59.106Z,5.30
2019-02-04T03:05:02.737Z,4.67
2019-02-04T03:06:06.372Z,5.53
2019-02-04T03:07:10.023Z,4.50
2019-02-04T03:08:13.699Z,5.27
2019-02-04T03:09:17.333Z,4.30
2019-02-04T03:10:26.770Z,4.80
2019-02-04T03:11:30.395Z,4.67
2019-02-04T03:12:34.308Z,4.50
2019-02-04T03:13:38.351Z,5.97
2019-02-04T03:14:41.980Z,4.47
2019-02-04T03:15:45.616Z,4.53
2019-02-04T03:16:49.258Z,4.23
2019-02-04T03:17:53.195Z,4.10
2019-02-04T03:18:56.859Z,4.00
2019-02-04T03:20:00.489Z,3.73
2019-02-04T03:21:04.123Z,3.77
2019-02-04T03:22:07.796Z,3.67
2019-02-04T03:23:11.430Z,4.13
2019-02-04T03:24:15.087Z,4.20
2019-02-04T03:25:18.794Z,4.03
2019-02-04T03:26:22.422Z,4.17
2019-02-04T03:27:26.230Z,4.57
2019-02-04T03:28:29.869Z,4.03
2019-02-04T03:29:33.541Z,4.70
2019-02-04T03:30:37.214Z,4.60
2019-02-04T03:31:45.679Z,4.77
2019-02-04T03:32:46.585Z,4.47
2019-02-04T03:33:50.498Z,5.40
2019-02-04T03:34:54.182Z,4.17
2019-02-04T03:35:57.812Z,4.37
2019-02-04T03:37:01.447Z,4.53
2019-02-04T03:38:05.081Z,4.70
2019-02-04T03:39:08.820Z,4.30
2019-02-04T03:40:23.963Z,4.30
2019-02-04T03:41:27.974Z,4.57
2019-02-04T03:42:31.701Z,4.80
2019-02-04T03:43:35.336Z,4.30
2019-02-04T03:44:39.247Z,4.53
2019-02-04T03:45:43.398Z,3.97
2019-02-04T03:46:47.035Z,3.53
2019-02-04T03:48:03.735Z,3.93
2019-02-04T03:48:55.965Z,4.20
2019-02-04T03:49:59.599Z,4.10
2019-02-04T03:51:03.276Z,3.07
2019-02-04T03:52:07.363Z,3.90
2019-02-04T03:53:11.001Z,3.47
2019-02-04T03:54:14.564Z,3.03
2019-02-04T03:55:18.802Z,3.47
2019-02-04T03:56:22.523Z,5.20
2019-02-04T03:57:26.160Z,3.83
2019-02-04T03:58:29.783Z,4.03
2019-02-04T03:59:33.406Z,3.50
2019-02-04T04:00:37.501Z,3.80
2019-02-04T04:01:41.646Z,3.50
2019-02-04T04:02:45.375Z,3.53
2019-02-04T04:03:49.004Z,3.63
2019-02-04T04:04:52.840Z,4.00
2019-02-04T04:05:56.488Z,3.60
2019-02-04T04:07:00.177Z,3.37
2019-02-04T04:08:03.813Z,4.67
2019-02-04T04:09:08.141Z,4.13
2019-02-04T04:10:12.278Z,5.10
2019-02-04T04:11:15.923Z,3.97
2019-02-04T04:12:19.572Z,4.63
2019-02-04T04:13:23.588Z,4.23
2019-02-04T04:14:27.224Z,4.47
2019-02-04T04:15:31.094Z,4.17
2019-02-04T04:16:35.102Z,6.07
2019-02-04T04:17:38.767Z,7.13
2019-02-04T04:18:42.401Z,8.00
2019-02-04T04:19:46.040Z,8.30
2019-02-04T04:20:49.579Z,8.70
2019-02-04T04:21:53.215Z,9.80
2019-02-04T04:22:56.881Z,8.23
2019-02-04T04:24:00.512Z,7.97
2019-02-04T04:25:05.546Z,7.50
2019-02-04T04:26:09.281Z,7.80
2019-02-04T04:27:12.911Z,7.17
2019-02-04T04:28:16.580Z,7.00
2019-02-04T04:29:20.213Z,6.53
2019-02-04T04:30:26.221Z,6.17
2019-02-04T04:31:30.233Z,9.77
2019-02-04T04:32:33.876Z,7.77
2019-02-04T04:33:37.672Z,8.07
2019-02-04T04:34:41.421Z,8.50
2019-02-04T04:35:45.336Z,9.63
2019-02-04T04:36:48.975Z,14.03
2019-02-04T04:37:53.168Z,13.23
2019-02-04T04:38:56.837Z,12.97
2019-02-04T04:40:00.474Z,12.03
2019-02-04T04:41:04.225Z,12.50
2019-02-04T04:42:07.851Z,13.27
2019-02-04T04:43:11.479Z,12.37
2019-02-04T04:44:15.146Z,14.10
2019-02-04T04:45:24.115Z,13.73
2019-02-04T04:46:28.027Z,14.20
2019-02-04T04:47:32.046Z,14.80
2019-02-04T04:48:35.551Z,12.87
2019-02-04T04:49:39.229Z,12.90
2019-02-04T04:50:43.186Z,13.10
2019-02-04T04:51:46.818Z,13.63
2019-02-04T04:52:50.460Z,12.60
2019-02-04T04:53:54.103Z,13.50
2019-02-04T04:54:57.782Z,13.83
2019-02-04T04:56:01.421Z,13.10
2019-02-04T04:57:05.088Z,12.27
2019-02-04T04:58:08.736Z,13.27
2019-02-04T04:59:12.373Z,12.07
2019-02-04T05:00:24.852Z,12.10
2019-02-04T05:01:28.483Z,12.87
2019-02-04T05:02:32.154Z,12.03
2019-02-04T05:03:36.084Z,11.33
2019-02-04T05:04:39.707Z,12.00
2019-02-04T05:05:43.337Z,12.83
2019-02-04T05:06:46.908Z,13.03
2019-02-04T05:07:50.580Z,12.87
2019-02-04T05:08:54.220Z,13.00
2019-02-04T05:09:57.838Z,12.77
2019-02-04T05:11:01.410Z,12.30
2019-02-04T05:12:05.051Z,12.57
2019-02-04T05:13:08.736Z,12.33
2019-02-04T05:14:12.733Z,12.30
2019-02-04T05:15:18.668Z,12.83
2019-02-04T05:16:22.306Z,12.73
2019-02-04T05:17:25.935Z,12.40
2019-02-04T05:18:37.873Z,12.43
2019-02-04T05:19:35.196Z,12.30
2019-02-04T05:20:38.753Z,12.03
2019-02-04T05:21:42.391Z,11.77
2019-02-04T05:22:45.954Z,12.27
2019-02-04T05:23:49.633Z,14.27
2019-02-04T05:24:53.268Z,12.60
2019-02-04T05:25:56.908Z,13.20
2019-02-04T05:27:00.549Z,13.33
2019-02-04T05:28:04.186Z,13.27
2019-02-04T05:29:07.857Z,13.40
2019-02-04T05:30:14.193Z,14.33
2019-02-04T05:31:17.842Z,13.07
2019-02-04T05:32:21.481Z,13.67
2019-02-04T05:33:25.182Z,15.27
2019-02-04T05:34:29.550Z,15.43
2019-02-04T05:35:33.197Z,15.13
2019-02-04T05:36:36.845Z,16.83
2019-02-04T05:37:40.455Z,18.27
2019-02-04T05:38:44.463Z,16.33
2019-02-04T05:39:48.137Z,15.40
2019-02-04T05:40:51.770Z,16.43
2019-02-04T05:41:55.404Z,15.40
2019-02-04T05:42:59.051Z,16.23
2019-02-04T05:44:02.664Z,17.87
2019-02-04T05:45:09.017Z,16.17
2019-02-04T05:46:12.640Z,16.40
2019-02-04T05:47:16.379Z,16.13
2019-02-04T05:48:20.022Z,14.80
2019-02-04T05:49:24.026Z,15.13
2019-02-04T05:50:27.676Z,15.63
2019-02-04T05:51:31.307Z,15.07
2019-02-04T05:52:34.946Z,17.67
2019-02-04T05:53:38.902Z,18.43
2019-02-04T05:54:42.533Z,16.57
2019-02-04T05:55:46.207Z,18.53
2019-02-04T05:56:49.841Z,19.50
2019-02-04T05:57:53.478Z,19.33
2019-02-04T05:58:57.118Z,21.27
2019-02-04T06:00:00.798Z,22.43
2019-02-04T06:01:04.730Z,21.10
2019-02-04T06:02:09.484Z,19.40
2019-02-04T06:03:13.295Z,19.40
2019-02-04T06:04:17.307Z,22.00
2019-02-04T06:05:21.245Z,22.07
2019-02-04T06:06:24.912Z,22.87
2019-02-04T06:07:28.733Z,26.07
2019-02-04T06:08:32.365Z,25.73
2019-02-04T06:09:36.000Z,24.77
2019-02-04T06:10:39.640Z,24.93
2019-02-04T06:11:43.285Z,23.03
2019-02-04T06:12:46.925Z,25.30
2019-02-04T06:13:50.588Z,18.57
2019-02-04T06:14:54.298Z,18.90
2019-02-04T06:15:57.933Z,19.13
2019-02-04T06:17:01.612Z,19.70
2019-02-04T06:18:05.423Z,18.13
2019-02-04T06:19:09.338Z,17.77
2019-02-04T06:20:18.452Z,17.73
2019-02-04T06:21:22.081Z,17.20
2019-02-04T06:22:25.750Z,15.53
2019-02-04T06:23:29.382Z,17.77
2019-02-04T06:24:33.016Z,20.30
2019-02-04T06:25:36.664Z,33.93
2019-02-04T06:26:40.331Z,29.47
2019-02-04T06:27:43.991Z,23.93
2019-02-04T06:28:47.629Z,22.50
2019-02-04T06:29:51.260Z,21.47
2019-02-04T06:30:54.901Z,37.07
2019-02-04T06:31:58.953Z,20.87
2019-02-04T06:33:02.634Z,21.70
2019-02-04T06:34:06.647Z,24.87
2019-02-04T06:35:11.272Z,30.43
2019-02-04T06:36:14.884Z,35.70
2019-02-04T06:37:18.522Z,28.17
2019-02-04T06:38:22.192Z,29.83
2019-02-04T06:39:25.823Z,27.20
2019-02-04T06:40:29.464Z,23.50
2019-02-04T06:41:33.092Z,22.93
2019-02-04T06:42:36.727Z,21.53
2019-02-04T06:43:40.402Z,23.30
2019-02-04T06:44:43.966Z,23.90
2019-02-04T06:45:47.651Z,26.73
2019-02-04T06:46:51.326Z,28.67
2019-02-04T06:47:54.949Z,30.07
2019-02-04T06:48:59.011Z,28.17
2019-02-04T06:50:02.645Z,29.13
2019-02-04T06:51:06.284Z,29.57
2019-02-04T06:52:09.921Z,31.60
2019-02-04T06:53:13.558Z,29.30
2019-02-04T06:54:17.320Z,27.10
2019-02-04T06:55:24.035Z,27.10
2019-02-04T06:56:27.746Z,25.77
2019-02-04T06:57:31.389Z,27.20
2019-02-04T06:58:35.087Z,24.53
2019-02-04T06:59:38.755Z,24.13
2019-02-04T07:00:43.381Z,22.27
2019-02-04T07:01:47.197Z,33.37
2019-02-04T07:02:50.905Z,42.23
2019-02-04T07:03:54.923Z,43.07
2019-02-04T07:04:58.812Z,41.73
2019-02-04T07:06:02.538Z,45.23
2019-02-04T07:07:06.703Z,28.80
2019-02-04T07:08:10.346Z,37.57
2019-02-04T07:09:14.025Z,28.17
2019-02-04T07:10:23.094Z,25.73
2019-02-04T07:11:26.736Z,24.37
2019-02-04T07:12:30.387Z,25.87
2019-02-04T07:13:34.022Z,24.43
2019-02-04T07:14:37.729Z,24.20
2019-02-04T07:15:41.405Z,24.03
2019-02-04T07:16:45.064Z,26.50
2019-02-04T07:17:49.062Z,32.27
2019-02-04T07:18:52.872Z,41.40
2019-02-04T07:19:56.893Z,38.47
2019-02-04T07:21:00.566Z,30.10
2019-02-04T07:22:04.216Z,32.00
2019-02-04T07:23:07.860Z,28.13
2019-02-04T07:24:11.497Z,22.83
2019-02-04T07:25:16.438Z,19.93
2019-02-04T07:26:20.100Z,18.47
2019-02-04T07:27:23.793Z,19.57
2019-02-04T07:28:27.833Z,22.40
2019-02-04T07:29:31.459Z,26.93
2019-02-04T07:30:35.097Z,28.07
2019-02-04T07:31:38.764Z,30.70
2019-02-04T07:32:42.403Z,29.27
2019-02-04T07:33:46.417Z,29.63
2019-02-04T07:34:50.056Z,28.30
2019-02-04T07:35:53.684Z,27.70
2019-02-04T07:36:57.360Z,29.37
2019-02-04T07:38:01.084Z,29.13
2019-02-04T07:39:07.494Z,25.80
2019-02-04T07:40:16.470Z,25.03
2019-02-04T07:41:20.114Z,25.27
2019-02-04T07:42:23.739Z,24.17
2019-02-04T07:43:27.384Z,21.10
2019-02-04T07:44:31.015Z,21.43
2019-02-04T07:45:34.752Z,19.40
2019-02-04T07:46:38.434Z,17.40
2019-02-04T07:47:42.370Z,17.70
2019-02-04T07:48:46.052Z,17.03
2019-02-04T07:49:50.178Z,16.90
2019-02-04T07:50:53.850Z,17.50
2019-02-04T07:51:57.596Z,18.87
2019-02-04T07:53:01.300Z,16.77
2019-02-04T07:54:05.047Z,19.30
2019-02-04T07:55:10.486Z,21.83
2019-02-04T07:56:14.184Z,18.73
2019-02-04T07:57:17.826Z,19.00
2019-02-04T07:58:21.638Z,17.20
2019-02-04T07:59:25.278Z,17.30
2019-02-04T08:00:31.228Z,18.23
2019-02-04T08:01:35.153Z,21.67
2019-02-04T08:02:38.797Z,23.33
2019-02-04T08:03:42.434Z,19.70
2019-02-04T08:04:46.261Z,21.33
2019-02-04T08:05:50.265Z,22.00
2019-02-04T08:06:53.936Z,19.17
2019-02-04T08:07:57.778Z,18.60
2019-02-04T08:09:01.345Z,17.50
2019-02-04T08:10:07.780Z,18.43
2019-02-04T08:11:11.344Z,18.37
2019-02-04T08:12:15.014Z,17.20
2019-02-04T08:13:18.660Z,26.17
2019-02-04T08:14:22.297Z,25.10
2019-02-04T08:15:28.731Z,19.10
2019-02-04T08:16:32.368Z,23.50
2019-02-04T08:17:36.042Z,23.33
2019-02-04T08:18:39.756Z,18.07
2019-02-04T08:19:47.056Z,26.10
2019-02-04T08:20:48.769Z,20.23
2019-02-04T08:21:52.414Z,16.97
2019-02-04T08:22:56.082Z,17.73
2019-02-04T08:23:59.727Z,26.60
2019-02-04T08:25:03.628Z,23.37
2019-02-04T08:26:07.283Z,24.77
2019-02-04T08:27:11.008Z,34.47
2019-02-04T08:28:14.682Z,25.00
2019-02-04T08:29:18.327Z,31.33
2019-02-04T08:30:24.679Z,24.83
2019-02-04T08:31:28.702Z,24.33
2019-02-04T08:32:32.338Z,22.67
2019-02-04T08:33:36.011Z,22.47
2019-02-04T08:34:39.659Z,22.07
2019-02-04T08:35:43.628Z,21.80
2019-02-04T08:36:47.256Z,21.57
2019-02-04T08:37:50.924Z,16.70
2019-02-04T08:38:54.598Z,17.07
2019-02-04T08:39:58.240Z,15.73
2019-02-04T08:41:01.891Z,15.80
2019-02-04T08:42:05.660Z,15.17
2019-02-04T08:43:09.352Z,15.40
2019-02-04T08:44:13.027Z,15.77
2019-02-04T08:45:16.677Z,15.37
2019-02-04T08:46:20.386Z,15.73
2019-02-04T08:47:24.450Z,19.93
2019-02-04T08:48:28.185Z,17.83
2019-02-04T08:49:32.147Z,19.07
2019-02-04T08:50:35.798Z,23.60
2019-02-04T08:51:39.471Z,27.07
2019-02-04T08:52:43.126Z,22.33
2019-02-04T08:53:46.835Z,20.77
2019-02-04T08:54:50.510Z,21.27
2019-02-04T08:55:54.148Z,19.63
2019-02-04T08:56:57.818Z,19.53
2019-02-04T08:58:01.456Z,19.27
2019-02-04T08:59:05.091Z,18.60
2019-02-04T09:00:14.889Z,19.03
2019-02-04T09:01:18.527Z,19.60
2019-02-04T09:02:23.792Z,19.13
2019-02-04T09:03:27.428Z,19.20
2019-02-04T09:04:33.212Z,19.33
2019-02-04T09:05:37.232Z,20.23
2019-02-04T09:06:41.268Z,16.73
2019-02-04T09:07:45.215Z,16.23
2019-02-04T09:08:48.931Z,15.70
2019-02-04T09:09:52.567Z,15.10
2019-02-04T09:10:56.285Z,14.43
2019-02-04T09:11:59.930Z,16.10
2019-02-04T09:13:03.712Z,19.17
2019-02-04T09:14:07.365Z,19.37
2019-02-04T09:15:16.225Z,18.63
2019-02-04T09:16:19.121Z,20.23
2019-02-04T09:17:22.825Z,19.67
2019-02-04T09:18:26.495Z,17.90
2019-02-04T09:19:30.910Z,16.47
2019-02-04T09:20:34.605Z,20.30
2019-02-04T09:21:38.251Z,18.97
2019-02-04T09:22:41.888Z,21.73
2019-02-04T09:23:45.722Z,21.67
2019-02-04T09:24:49.370Z,18.40
2019-02-04T09:25:53.012Z,18.30
2019-02-04T09:26:56.660Z,24.70
2019-02-04T09:28:00.304Z,22.00
2019-02-04T09:29:04.037Z,18.70
2019-02-04T09:30:10.666Z,17.03
2019-02-04T09:31:14.311Z,17.20
2019-02-04T09:32:17.958Z,18.53
2019-02-04T09:33:22.237Z,18.27
2019-02-04T09:34:25.980Z,17.50
2019-02-04T09:35:29.721Z,17.93
2019-02-04T09:36:33.393Z,18.50
2019-02-04T09:37:37.120Z,23.27
2019-02-04T09:38:40.855Z,26.10
2019-02-04T09:39:46.490Z,19.20
2019-02-04T09:40:50.859Z,18.33
2019-02-04T09:41:54.560Z,16.83
2019-02-04T09:42:58.192Z,18.07
2019-02-04T09:44:01.834Z,18.23
2019-02-04T09:45:08.519Z,17.73
2019-02-04T09:46:12.167Z,19.43
2019-02-04T09:47:15.806Z,17.67
2019-02-04T09:48:19.868Z,17.93
2019-02-04T09:49:23.881Z,16.63
2019-02-04T09:50:32.497Z,16.13
2019-02-04T09:51:36.014Z,16.93
2019-02-04T09:52:39.649Z,19.17
2019-02-04T09:53:43.286Z,28.33
2019-02-04T09:54:47.289Z,20.97
2019-02-04T09:55:50.955Z,21.87
2019-02-04T09:56:54.989Z,19.70
2019-02-04T09:57:58.630Z,19.00
2019-02-04T09:59:02.306Z,22.37
2019-02-04T10:00:08.852Z,19.33
2019-02-04T10:01:12.727Z,20.10
2019-02-04T10:02:16.364Z,19.20
2019-02-04T10:03:20.140Z,19.30
2019-02-04T10:04:23.862Z,18.27
2019-02-04T10:05:27.872Z,18.10
2019-02-04T10:06:31.551Z,17.43
2019-02-04T10:07:35.229Z,17.23
2019-02-04T10:08:38.875Z,16.87
2019-02-04T10:09:42.514Z,16.37
2019-02-04T10:10:46.160Z,15.97
2019-02-04T10:11:49.835Z,15.63
2019-02-04T10:12:53.673Z,15.40
2019-02-04T10:13:57.327Z,14.30
2019-02-04T10:15:00.992Z,15.17
2019-02-04T10:16:04.860Z,14.30
2019-02-04T10:17:08.515Z,14.30
2019-02-04T10:18:12.976Z,13.77
2019-02-04T10:19:16.682Z,14.43
2019-02-04T10:20:20.957Z,15.13
2019-02-04T10:21:24.558Z,16.07
2019-02-04T10:22:28.263Z,17.83
2019-02-04T10:23:32.004Z,17.53
2019-02-04T10:24:35.554Z,15.23
2019-02-04T10:25:41.627Z,11.47
2019-02-04T10:26:45.281Z,13.40
2019-02-04T10:27:49.031Z,16.53
2019-02-04T10:28:52.732Z,8.07
2019-02-04T10:29:58.034Z,7.83
2019-02-04T10:31:01.646Z,7.87
2019-02-04T10:32:05.720Z,8.77
2019-02-04T10:33:09.861Z,8.53
2019-02-04T10:34:13.468Z,8.87
2019-02-04T10:35:18.576Z,10.70
2019-02-04T10:36:23.140Z,10.47
2019-02-04T10:37:26.856Z,12.47
2019-02-04T10:38:30.514Z,19.03
2019-02-04T10:39:34.177Z,15.40
2019-02-04T10:40:37.840Z,13.03
2019-02-04T10:41:41.534Z,12.33
2019-02-04T10:42:45.286Z,11.00
2019-02-04T10:43:49.036Z,12.27
2019-02-04T10:44:52.679Z,11.13
2019-02-04T10:45:56.319Z,9.87
2019-02-04T10:46:59.973Z,10.00
2019-02-04T10:48:03.854Z,9.80
2019-02-04T10:49:07.593Z,10.73
2019-02-04T10:50:14.438Z,9.67
2019-02-04T10:51:18.530Z,9.47
2019-02-04T10:52:23.304Z,10.10
2019-02-04T10:53:27.841Z,11.03
2019-02-04T10:54:32.792Z,9.93
2019-02-04T10:55:36.467Z,11.10
2019-02-04T10:56:40.211Z,10.93
2019-02-04T10:57:43.973Z,13.73
2019-02-04T10:58:47.636Z,15.67
2019-02-04T10:59:51.348Z,12.57
2019-02-04T11:00:55.066Z,12.57
2019-02-04T11:01:58.794Z,14.57
2019-02-04T11:03:03.114Z,13.40
2019-02-04T11:04:06.798Z,12.83
2019-02-04T11:05:13.750Z,14.23
2019-02-04T11:06:17.825Z,18.03
2019-02-04T11:07:21.838Z,20.27
2019-02-04T11:08:25.638Z,17.47
2019-02-04T11:09:29.456Z,13.00
2019-02-04T11:10:34.865Z,14.00
2019-02-04T11:11:38.776Z,12.47
2019-02-04T11:12:42.660Z,12.07
2019-02-04T11:13:46.385Z,13.07
2019-02-04T11:14:50.122Z,11.00
2019-02-04T11:15:54.182Z,11.07
2019-02-04T11:16:59.070Z,11.97
2019-02-04T11:18:02.832Z,12.97
2019-02-04T11:19:07.563Z,11.67
2019-02-04T11:20:26.350Z,11.47
2019-02-04T11:21:30.219Z,10.87
2019-02-04T11:22:34.026Z,13.67
2019-02-04T11:23:37.806Z,11.47
2019-02-04T11:24:41.547Z,13.80
2019-02-04T11:25:45.755Z,13.50
2019-02-04T11:26:49.624Z,13.10
2019-02-04T11:27:53.264Z,13.17
2019-02-04T11:28:56.913Z,11.73
2019-02-04T11:30:00.641Z,10.77
2019-02-04T11:31:04.723Z,11.90
2019-02-04T11:32:08.400Z,10.47
2019-02-04T11:33:12.311Z,11.83
2019-02-04T11:34:15.958Z,11.67
2019-02-04T11:35:19.611Z,12.87
2019-02-04T11:36:23.235Z,14.17
2019-02-04T11:37:26.907Z,10.50
2019-02-04T11:38:30.700Z,11.03
2019-02-04T11:39:34.362Z,11.93
2019-02-04T11:40:40.272Z,11.57
2019-02-04T11:41:44.335Z,9.13
2019-02-04T11:42:48.252Z,10.80
2019-02-04T11:43:52.377Z,12.43
2019-02-04T11:44:56.006Z,11.87
2019-02-04T11:45:59.710Z,11.03
2019-02-04T11:47:03.394Z,11.13
2019-02-04T11:48:12.458Z,10.60
2019-02-04T11:49:16.247Z,11.50
2019-02-04T11:50:19.895Z,11.73
2019-02-04T11:51:23.539Z,12.40
2019-02-04T11:52:27.181Z,14.43
2019-02-04T11:53:33.042Z,16.23
2019-02-04T11:54:36.236Z,15.83
2019-02-04T11:55:39.952Z,19.03
2019-02-04T11:56:45.987Z,22.47
2019-02-04T11:57:50.108Z,13.47
2019-02-04T11:58:54.205Z,11.93
2019-02-04T11:59:57.845Z,12.00
2019-02-04T12:01:01.494Z,13.30
2019-02-04T12:02:09.385Z,15.53
2019-02-04T12:03:14.005Z,14.80
2019-02-04T12:04:18.068Z,14.63
2019-02-04T12:05:23.499Z,12.60
2019-02-04T12:06:27.147Z,13.83
2019-02-04T12:07:30.852Z,14.07
2019-02-04T12:08:34.494Z,12.13
2019-02-04T12:09:38.165Z,12.77
2019-02-04T12:10:45.223Z,14.00
2019-02-04T12:11:48.885Z,13.93
2019-02-04T12:12:52.603Z,11.77
2019-02-04T12:13:56.717Z,10.23
2019-02-04T12:15:00.606Z,10.03
2019-02-04T12:16:05.718Z,10.43
2019-02-04T12:17:09.386Z,11.83
2019-02-04T12:18:13.031Z,14.47
2019-02-04T12:19:16.669Z,15.30
2019-02-04T12:20:20.814Z,16.87
2019-02-04T12:21:24.449Z,17.03
2019-02-04T12:22:28.089Z,16.30
2019-02-04T12:23:31.736Z,13.00
2019-02-04T12:24:35.374Z,13.67
2019-02-04T12:25:39.048Z,14.43
2019-02-04T12:26:42.726Z,15.13
2019-02-04T12:27:46.458Z,15.27
2019-02-04T12:28:50.568Z,16.07
2019-02-04T12:29:54.282Z,13.73
2019-02-04T12:30:57.956Z,10.10
2019-02-04T12:32:01.593Z,7.40
2019-02-04T12:33:07.230Z,8.20
2019-02-04T12:34:10.865Z,9.23
2019-02-04T12:35:14.702Z,8.87
2019-02-04T12:36:18.372Z,11.43
2019-02-04T12:37:22.023Z,9.57
2019-02-04T12:38:25.942Z,9.73
2019-02-04T12:39:29.664Z,9.70
2019-02-04T12:40:33.310Z,10.07
2019-02-04T12:41:36.986Z,10.63
2019-02-04T12:42:40.729Z,9.20
2019-02-04T12:43:45.812Z,9.87
2019-02-04T12:44:49.454Z,7.80
2019-02-04T12:45:54.615Z,8.30
2019-02-04T12:46:58.356Z,9.33
2019-02-04T12:48:01.993Z,7.80
2019-02-04T12:49:05.657Z,8.17
2019-02-04T12:50:11.807Z,8.27
2019-02-04T12:51:15.449Z,9.03
2019-02-04T12:52:19.518Z,10.47
2019-02-04T12:53:23.361Z,11.13
2019-02-04T12:54:26.996Z,9.03
2019-02-04T12:55:32.149Z,10.27
2019-02-04T12:56:38.533Z,8.73
2019-02-04T12:57:42.199Z,6.07
2019-02-04T12:58:55.274Z,6.83
2019-02-04T12:59:51.219Z,6.97
2019-02-04T13:00:55.228Z,6.43
2019-02-04T13:01:58.869Z,7.33
2019-02-04T13:03:02.543Z,5.90
2019-02-04T13:04:06.384Z,4.90
2019-02-04T13:05:12.925Z,9.20
2019-02-04T13:06:16.576Z,7.43
2019-02-04T13:07:20.220Z,10.93
2019-02-04T13:08:24.312Z,9.80
2019-02-04T13:09:27.995Z,5.70
2019-02-04T13:10:31.726Z,7.03
2019-02-04T13:11:35.361Z,8.23
2019-02-04T13:12:39.405Z,9.10
2019-02-04T13:13:43.090Z,10.50
2019-02-04T13:14:46.727Z,9.37
2019-02-04T13:15:50.866Z,7.27
2019-02-04T13:16:54.499Z,8.97
2019-02-04T13:17:58.135Z,8.30
2019-02-04T13:19:02.775Z,7.53
2019-02-04T13:20:09.354Z,6.00
2019-02-04T13:21:12.990Z,5.60
2019-02-04T13:22:16.769Z,5.77
2019-02-04T13:23:20.513Z,6.80
2019-02-04T13:24:24.111Z,5.97
2019-02-04T13:25:29.714Z,6.23
2019-02-04T13:26:33.358Z,6.07
2019-02-04T13:27:37.096Z,6.70
2019-02-04T13:28:40.740Z,6.60
2019-02-04T13:29:46.461Z,5.90
2019-02-04T13:30:49.910Z,6.27
2019-02-04T13:31:54.015Z,6.63
2019-02-04T13:32:58.154Z,6.67
2019-02-04T13:34:01.939Z,6.60
2019-02-04T13:35:08.184Z,5.70
2019-02-04T13:36:11.854Z,5.73
2019-02-04T13:37:15.478Z,5.97
2019-02-04T13:38:19.228Z,4.93
2019-02-04T13:39:26.232Z,6.13
2019-02-04T13:40:31.211Z,5.07
2019-02-04T13:41:34.850Z,5.70
2019-02-04T13:42:39.967Z,6.77
2019-02-04T13:43:45.921Z,6.47
2019-02-04T13:44:49.298Z,6.23
2019-02-04T13:45:53.129Z,6.23
2019-02-04T13:46:56.819Z,5.97
2019-02-04T13:48:00.639Z,5.97
2019-02-04T13:49:04.939Z,5.83
2019-02-04T13:50:10.410Z,5.40
2019-02-04T13:51:14.048Z,5.27
2019-02-04T13:52:17.745Z,3.80
2019-02-04T13:53:21.526Z,4.30
2019-02-04T13:54:25.164Z,4.80
2019-02-04T13:55:31.013Z,5.07
2019-02-04T13:56:34.752Z,5.47